Time;durP1;ratioP1;P1;durP2;ratioP2;P2;SDS_P1;SDS_P2;PMS_P1;PMS_P2;Temp;Humidity;BMP_temperature;BMP_pressure;BME280_temperature;BME280_humidity;BME280_pressure;Samples;Min_cycle;Max_cycle;Signal;HPM_P1;HPM_P2
2022/06/26 00:01:03;;;;;;;0.82;0.82;;;;;;;18.85;98.82;96526.09;5064195;28;20210;-51
2022/06/26 00:03:30;;;;;;;0.60;0.60;;;;;;;18.81;97.08;96531.03;5063705;28;20199;-52
2022/06/26 00:05:57;;;;;;;1.25;1.10;;;;;;;18.69;98.99;96531.78;5061573;28;20242;-52
2022/06/26 00:08:25;;;;;;;1.27;1.10;;;;;;;18.59;100.00;96528.63;5070987;28;20195;-52
2022/06/26 00:10:52;;;;;;;0.98;0.95;;;;;;;18.52;100.00;96512.53;5074563;28;20238;-55
2022/06/26 00:13:19;;;;;;;0.90;0.90;;;;;;;18.47;100.00;96522.13;5076324;28;20194;-53
2022/06/26 00:15:46;;;;;;;2.17;1.10;;;;;;;18.45;100.00;96511.63;5076570;28;20215;-53
2022/06/26 00:18:14;;;;;;;1.95;1.13;;;;;;;18.38;100.00;96498.19;5077653;28;20259;-54
2022/06/26 00:20:40;;;;;;;1.08;0.93;;;;;;;18.40;100.00;96497.97;5077715;28;20175;-53
2022/06/26 00:23:08;;;;;;;2.17;1.35;;;;;;;18.36;100.00;96491.34;5077067;28;20176;-53
2022/06/26 00:25:36;;;;;;;1.23;1.10;;;;;;;18.34;100.00;96496.09;5077374;28;20198;-54
2022/06/26 00:28:02;;;;;;;1.40;1.30;;;;;;;18.36;100.00;96510.09;5076024;28;20627;-53
2022/06/26 00:30:31;;;;;;;1.33;1.23;;;;;;;18.36;100.00;96512.78;5058199;28;20207;-53
2022/06/26 00:32:57;;;;;;;1.98;1.85;;;;;;;18.29;100.00;96517.25;5052987;28;20242;-52
2022/06/26 00:35:24;;;;;;;1.40;1.30;;;;;;;18.27;100.00;96519.31;5052672;28;20314;-57
2022/06/26 00:37:50;;;;;;;1.60;1.50;;;;;;;18.28;100.00;96524.44;5052305;28;20207;-56
2022/06/26 00:40:17;;;;;;;1.10;1.00;;;;;;;18.26;100.00;96526.50;5052002;28;20195;-55
2022/06/26 00:42:45;;;;;;;1.30;1.20;;;;;;;18.21;100.00;96509.38;5051902;28;20794;-55
2022/06/26 00:45:12;;;;;;;2.75;1.23;;;;;;;18.19;100.00;96481.97;5052341;28;20196;-51
2022/06/26 00:47:39;;;;;;;1.27;1.17;;;;;;;18.16;100.00;96459.09;5051987;28;20218;-52
2022/06/26 00:50:09;;;;;;;1.42;1.33;;;;;;;18.22;100.00;96444.09;5050837;28;20254;-53
2022/06/26 00:52:36;;;;;;;1.25;1.25;;;;;;;18.26;100.00;96440.00;5051492;28;20217;-54
2022/06/26 00:55:03;;;;;;;1.10;1.10;;;;;;;18.32;100.00;96444.56;5051888;28;20218;-53
2022/06/26 00:57:30;;;;;;;0.88;0.85;;;;;;;18.30;100.00;96451.97;5051737;28;20286;-54
2022/06/26 00:59:58;;;;;;;1.05;1.05;;;;;;;18.26;100.00;96456.91;5051583;28;20204;-55
2022/06/26 01:02:25;;;;;;;0.90;0.85;;;;;;;18.28;100.00;96470.09;5051795;28;20211;-55
2022/06/26 01:04:51;;;;;;;0.77;0.70;;;;;;;18.26;100.00;96477.47;5053637;28;20683;-56
2022/06/26 01:07:18;;;;;;;1.38;1.05;;;;;;;18.14;100.00;96466.47;5055516;28;20203;-56
2022/06/26 01:09:45;;;;;;;0.70;0.70;;;;;;;18.20;100.00;96472.91;5055631;28;20271;-56
2022/06/26 01:12:12;;;;;;;0.80;0.80;;;;;;;18.22;100.00;96470.88;5055048;28;20286;-54
2022/06/26 01:14:39;;;;;;;0.80;0.80;;;;;;;18.13;100.00;96472.03;5054629;28;20306;-55
2022/06/26 01:17:07;;;;;;;2.67;1.08;;;;;;;18.07;100.00;96470.94;5054945;28;20289;-55
2022/06/26 01:19:34;;;;;;;1.08;0.73;;;;;;;18.07;100.00;96467.44;5054749;28;20191;-52
2022/06/26 01:22:01;;;;;;;2.75;0.80;;;;;;;18.13;100.00;96472.88;5055085;28;20230;-52
2022/06/26 01:24:29;;;;;;;1.00;0.90;;;;;;;18.15;100.00;96475.34;5054787;28;20238;-52
2022/06/26 01:26:55;;;;;;;0.77;0.77;;;;;;;18.12;100.00;96475.72;5054727;28;20294;-52
2022/06/26 01:29:22;;;;;;;1.85;1.08;;;;;;;18.07;100.00;96484.31;5054419;28;20207;-52
2022/06/26 01:31:49;;;;;;;1.20;1.20;;;;;;;18.04;100.00;96478.53;5054955;28;20616;-52
2022/06/26 01:34:16;;;;;;;1.13;1.13;;;;;;;17.96;100.00;96476.03;5054160;28;20290;-53
2022/06/26 01:36:42;;;;;;;0.85;0.85;;;;;;;17.98;100.00;96468.63;5054339;28;20280;-52
2022/06/26 01:39:09;;;;;;;1.17;1.08;;;;;;;17.96;100.00;96462.66;5054127;28;20211;-51
2022/06/26 01:41:37;;;;;;;1.38;1.23;;;;;;;17.97;100.00;96456.25;5054258;28;20281;-52
2022/06/26 01:44:07;;;;;;;2.00;1.10;;;;;;;17.99;100.00;96457.72;5053955;28;20642;-52
2022/06/26 01:46:33;;;;;;;1.80;0.85;;;;;;;17.95;100.00;96451.09;5054367;28;20294;-52
2022/06/26 01:49:00;;;;;;;1.08;0.95;;;;;;;17.92;100.00;96456.03;5054649;28;20341;-51
2022/06/26 01:51:26;;;;;;;0.70;0.70;;;;;;;17.94;100.00;96443.25;5054452;28;20195;-53
2022/06/26 01:53:55;;;;;;;0.98;0.80;;;;;;;17.95;100.00;96458.31;5054622;28;20217;-53
2022/06/26 01:56:22;;;;;;;1.48;1.00;;;;;;;17.93;100.00;96453.13;5053951;28;20310;-52
2022/06/26 01:58:50;;;;;;;1.50;0.90;;;;;;;17.89;100.00;96457.22;5054112;28;20208;-52
2022/06/26 02:01:17;;;;;;;1.38;0.93;;;;;;;17.89;100.00;96460.72;5053750;28;20311;-55
2022/06/26 02:03:43;;;;;;;1.88;1.20;;;;;;;17.96;100.00;96455.41;5053862;28;20575;-54
2022/06/26 02:06:10;;;;;;;0.95;0.95;;;;;;;18.02;100.00;96453.84;5054076;28;20191;-55
2022/06/26 02:08:37;;;;;;;1.25;1.00;;;;;;;18.01;100.00;96460.19;5053865;28;20207;-55
2022/06/26 02:13:50;;;;;;;0.80;0.80;;;;;;;18.05;100.00;96458.78;5053708;28;20222;-54
2022/06/26 02:16:19;;;;;;;0.80;0.80;;;;;;;17.96;100.00;96450.06;5052875;28;20762;-55
2022/06/26 02:18:49;;;;;;;1.20;1.10;;;;;;;17.95;100.00;96455.63;5053399;28;20366;-55
2022/06/26 02:21:18;;;;;;;0.93;0.93;;;;;;;17.91;100.00;96447.16;5053659;28;20219;-55
2022/06/26 02:23:46;;;;;;;1.10;1.10;;;;;;;17.87;100.00;96440.53;5053643;28;20246;-55
2022/06/26 02:26:13;;;;;;;1.75;0.90;;;;;;;17.92;100.00;96437.28;5052725;28;20615;-54
2022/06/26 02:28:40;;;;;;;1.08;1.08;;;;;;;17.92;100.00;96433.56;5056910;28;20199;-56
2022/06/26 02:31:08;;;;;;;1.50;1.40;;;;;;;17.93;100.00;96429.06;5075900;28;20206;-56
2022/06/26 02:33:35;;;;;;;1.33;1.10;;;;;;;17.95;100.00;96428.88;5063437;28;20219;-53
2022/06/26 02:36:02;;;;;;;1.20;1.20;;;;;;;17.94;100.00;96424.53;5060066;28;20227;-55
2022/06/26 02:38:29;;;;;;;1.05;0.98;;;;;;;17.91;100.00;96425.75;5053310;28;20281;-53
2022/06/26 02:40:55;;;;;;;1.05;1.00;;;;;;;17.88;100.00;96420.81;5053570;28;20227;-53
2022/06/26 02:43:24;;;;;;;1.10;1.10;;;;;;;17.85;100.00;96419.31;5053250;28;20246;-53
2022/06/26 02:45:51;;;;;;;1.15;1.08;;;;;;;17.79;100.00;96413.91;5053128;28;20658;-54
2022/06/26 02:48:19;;;;;;;0.88;0.82;;;;;;;17.81;100.00;96420.75;5052980;28;20191;-54
2022/06/26 02:50:46;;;;;;;0.98;0.98;;;;;;;17.70;100.00;96407.91;5053275;28;20242;-57
2022/06/26 02:53:13;;;;;;;0.90;0.90;;;;;;;17.74;100.00;96408.34;5052993;28;20260;-57
2022/06/26 02:55:40;;;;;;;0.90;0.90;;;;;;;17.68;100.00;96409.09;5053497;28;20628;-56
2022/06/26 02:58:06;;;;;;;1.73;1.00;;;;;;;17.69;100.00;96402.72;5052404;28;20818;-57
2022/06/26 03:00:33;;;;;;;1.13;1.02;;;;;;;17.60;100.00;96411.91;5051863;28;20286;-55
2022/06/26 03:03:01;;;;;;;1.45;1.30;;;;;;;17.53;100.00;96411.00;5052673;28;20396;-51
2022/06/26 03:05:30;;;;;;;2.03;0.90;;;;;;;17.47;100.00;96409.91;5052879;28;20203;-51
2022/06/26 03:07:57;;;;;;;1.42;1.00;;;;;;;17.47;100.00;96417.09;5052175;28;20540;-51
2022/06/26 03:10:24;;;;;;;1.10;1.10;;;;;;;17.38;100.00;96416.41;5052739;28;20523;-53
2022/06/26 03:12:51;;;;;;;0.90;0.90;;;;;;;17.40;100.00;96417.03;5052390;28;20209;-51
2022/06/26 03:15:18;;;;;;;1.55;1.20;;;;;;;17.32;100.00;96425.19;5052707;28;20207;-52
2022/06/26 03:17:46;;;;;;;1.10;1.10;;;;;;;17.28;100.00;96429.25;5051794;28;20211;-52
2022/06/26 03:20:15;;;;;;;1.67;1.10;;;;;;;17.19;100.00;96425.88;5052624;28;20234;-52
2022/06/26 03:22:43;;;;;;;1.23;1.23;;;;;;;17.19;100.00;96433.88;5052419;28;20286;-50
2022/06/26 03:25:10;;;;;;;1.02;1.02;;;;;;;17.19;100.00;96425.88;5052171;28;20206;-50
2022/06/26 03:27:37;;;;;;;1.10;1.10;;;;;;;17.24;100.00;96430.66;5050410;28;20703;-52
2022/06/26 03:30:04;;;;;;;1.80;1.35;;;;;;;17.20;100.00;96424.03;5051962;28;20222;-51
2022/06/26 03:32:30;;;;;;;1.42;0.95;;;;;;;17.09;100.00;96420.00;5052157;28;20210;-50
2022/06/26 03:34:57;;;;;;;2.40;1.35;;;;;;;17.08;100.00;96417.50;5052265;28;20207;-51
2022/06/26 03:37:24;;;;;;;1.17;1.08;;;;;;;17.06;100.00;96416.88;5051545;28;20318;-51
2022/06/26 03:39:52;;;;;;;1.17;1.08;;;;;;;17.04;100.00;96409.03;5051959;28;20206;-52
2022/06/26 03:42:18;;;;;;;1.90;1.25;;;;;;;16.97;100.00;96402.00;5051418;28;20299;-51
2022/06/26 03:44:45;;;;;;;0.93;0.93;;;;;;;17.02;100.00;96402.25;5052094;28;20605;-51
2022/06/26 03:47:11;;;;;;;1.90;1.30;;;;;;;16.99;100.00;96407.97;5052256;28;20290;-51
2022/06/26 03:49:38;;;;;;;1.27;1.27;;;;;;;16.92;100.00;96407.91;5051427;28;20691;-51
2022/06/26 03:52:05;;;;;;;2.22;1.30;;;;;;;16.89;100.00;96405.59;5051648;28;20294;-52
2022/06/26 03:54:33;;;;;;;2.13;0.90;;;;;;;16.85;100.00;96402.47;5051818;28;20298;-50
2022/06/26 03:57:02;;;;;;;1.10;1.10;;;;;;;16.91;100.00;96404.38;5051329;28;20231;-51
2022/06/26 03:59:28;;;;;;;1.77;1.67;;;;;;;16.88;100.00;96407.44;5052018;28;20583;-51
2022/06/26 04:01:55;;;;;;;1.27;1.05;;;;;;;16.92;100.00;96413.22;5051570;28;20285;-50
2022/06/26 04:04:22;;;;;;;3.13;1.30;;;;;;;16.97;100.00;96399.31;5052244;28;20290;-52
2022/06/26 04:06:48;;;;;;;1.52;1.42;;;;;;;16.93;100.00;96410.34;5052547;28;20211;-51
2022/06/26 04:09:15;;;;;;;1.20;1.20;;;;;;;16.92;100.00;96408.72;5052867;28;20203;-51
2022/06/26 04:11:42;;;;;;;0.98;0.98;;;;;;;16.95;100.00;96402.16;5052740;28;20294;-52
2022/06/26 04:14:10;;;;;;;1.15;1.15;;;;;;;16.93;100.00;96398.88;5052280;28;20254;-51
2022/06/26 04:16:36;;;;;;;1.20;1.10;;;;;;;17.01;100.00;96395.22;5051832;28;20314;-51
2022/06/26 04:19:03;;;;;;;1.43;1.03;;;;;;;17.28;100.00;96386.50;5051842;28;20245;-50
2022/06/26 04:21:30;;;;;;;1.40;1.30;;;;;;;17.52;100.00;96399.47;5051863;28;20230;-51
2022/06/26 04:23:56;;;;;;;1.10;1.00;;;;;;;17.77;100.00;96392.72;5052002;28;20203;-50
2022/06/26 04:26:23;;;;;;;1.33;1.30;;;;;;;17.77;100.00;96398.06;5052412;28;20651;-51
2022/06/26 04:28:50;;;;;;;1.48;1.10;;;;;;;17.90;100.00;96392.81;5051848;28;20227;-50
2022/06/26 04:31:19;;;;;;;1.25;1.20;;;;;;;17.96;100.00;96395.75;5051745;28;20203;-50
2022/06/26 04:33:46;;;;;;;2.08;1.15;;;;;;;18.11;100.00;96391.09;5052746;28;20225;-51
2022/06/26 04:36:13;;;;;;;1.52;1.10;;;;;;;18.25;100.00;96390.16;5051964;28;20322;-51
2022/06/26 04:38:40;;;;;;;3.05;1.00;;;;;;;18.57;100.00;96400.25;5054126;28;20247;-51
2022/06/26 04:43:47;;;;;;;1.00;1.00;;;;;;;18.80;100.00;96406.16;5059325;28;20202;-51
2022/06/26 04:46:14;;;;;;;1.52;1.42;;;;;;;19.00;100.00;96410.75;5057555;28;20593;-52
2022/06/26 04:48:41;;;;;;;1.38;1.38;;;;;;;19.09;100.00;96409.56;5055586;28;20298;-52
2022/06/26 04:51:08;;;;;;;1.50;1.50;;;;;;;19.03;100.00;96405.81;5054950;28;20234;-50
2022/06/26 04:53:34;;;;;;;2.08;1.95;;;;;;;19.12;100.00;96401.94;5055396;28;20207;-52
2022/06/26 04:56:01;;;;;;;2.97;1.80;;;;;;;19.06;100.00;96399.25;5055708;28;20223;-51
2022/06/26 04:58:28;;;;;;;2.38;2.17;;;;;;;18.99;100.00;96403.75;5055432;28;20298;-51
2022/06/26 05:00:54;;;;;;;2.38;2.20;;;;;;;18.89;100.00;96410.31;5055424;28;20294;-51
2022/06/26 05:03:21;;;;;;;2.05;1.92;;;;;;;18.77;100.00;96409.25;5055697;28;20298;-52
2022/06/26 05:05:49;;;;;;;2.45;2.35;;;;;;;18.70;100.00;96415.59;5055344;28;20304;-52
2022/06/26 05:08:16;;;;;;;3.28;2.53;;;;;;;18.68;100.00;96413.09;5054948;28;20242;-49
2022/06/26 05:10:42;;;;;;;3.20;3.00;;;;;;;18.60;100.00;96415.94;5055044;28;20651;-51
2022/06/26 05:13:09;;;;;;;3.15;2.60;;;;;;;18.55;100.00;96417.56;5055553;28;20278;-50
2022/06/26 05:15:36;;;;;;;3.80;2.88;;;;;;;18.56;100.00;96417.38;5055904;28;20298;-51
2022/06/26 05:18:02;;;;;;;4.13;3.30;;;;;;;18.54;100.00;96407.88;5055319;28;20314;-52
2022/06/26 05:20:29;;;;;;;3.10;2.90;;;;;;;18.51;100.00;96427.84;5055291;28;20213;-51
2022/06/26 05:22:57;;;;;;;3.00;2.80;;;;;;;18.44;100.00;96421.59;5054901;28;20210;-52
2022/06/26 05:25:24;;;;;;;2.50;2.40;;;;;;;18.48;100.00;96422.84;5055280;28;20286;-51
2022/06/26 05:27:50;;;;;;;2.58;2.40;;;;;;;18.57;100.00;96421.69;5055296;28;20416;-52
2022/06/26 05:30:17;;;;;;;2.58;2.40;;;;;;;18.81;100.00;96431.09;5054989;28;20219;-52
2022/06/26 05:32:44;;;;;;;2.80;2.60;;;;;;;18.98;100.00;96424.38;5055405;28;20238;-51
2022/06/26 05:35:11;;;;;;;2.47;2.35;;;;;;;19.27;100.00;96428.59;5054706;28;20246;-51
2022/06/26 05:37:37;;;;;;;2.75;2.55;;;;;;;19.46;100.00;96429.69;5054193;28;20659;-50
2022/06/26 05:40:07;;;;;;;2.50;2.40;;;;;;;19.58;100.00;96436.94;5054329;28;20299;-50
2022/06/26 05:42:34;;;;;;;2.55;2.42;;;;;;;19.68;100.00;96439.22;5053255;28;20689;-50
2022/06/26 05:45:00;;;;;;;2.20;2.10;;;;;;;19.57;100.00;96435.28;5054431;28;20298;-49
2022/06/26 05:47:27;;;;;;;2.33;2.22;;;;;;;19.53;100.00;96434.03;5055043;28;20285;-50
2022/06/26 05:49:55;;;;;;;2.35;2.13;;;;;;;19.75;100.00;96418.56;5053533;28;20267;-50
2022/06/26 05:52:21;;;;;;;2.67;2.47;;;;;;;19.77;100.00;96420.00;5054691;28;20249;-51
2022/06/26 05:54:48;;;;;;;2.22;2.03;;;;;;;19.92;99.37;96401.03;5054438;28;20207;-52
2022/06/26 05:57:17;;;;;;;2.25;2.10;;;;;;;20.28;99.53;96392.56;5054550;28;20219;-49
2022/06/26 05:59:43;;;;;;;2.15;2.05;;;;;;;20.53;98.03;96396.22;5054513;28;20243;-50
2022/06/26 06:02:10;;;;;;;2.10;1.98;;;;;;;20.83;95.00;96394.66;5054600;28;20292;-52
2022/06/26 06:04:36;;;;;;;2.10;1.92;;;;;;;21.13;93.35;96386.09;5054314;28;20290;-50
2022/06/26 06:07:03;;;;;;;2.60;2.00;;;;;;;21.52;91.96;96388.53;5054511;28;20226;-51
2022/06/26 06:09:32;;;;;;;1.80;1.70;;;;;;;21.54;86.89;96381.06;5054008;28;20238;-51
2022/06/26 06:12:00;;;;;;;1.73;1.67;;;;;;;22.01;86.74;96377.00;5055083;28;20206;-51
2022/06/26 06:14:28;;;;;;;1.83;1.73;;;;;;;22.17;87.11;96364.84;5053837;28;20643;-50
2022/06/26 06:16:55;;;;;;;4.47;2.00;;;;;;;22.12;86.90;96375.47;5054025;28;20314;-51
2022/06/26 06:19:23;;;;;;;1.40;1.40;;;;;;;21.90;87.92;96374.16;5054113;28;20271;-50
2022/06/26 06:21:49;;;;;;;1.80;1.70;;;;;;;22.18;85.97;96382.63;5054486;28;20292;-51
2022/06/26 06:24:17;;;;;;;2.35;1.63;;;;;;;22.13;86.31;96401.34;5054108;28;20254;-51
2022/06/26 06:26:43;;;;;;;1.50;1.50;;;;;;;21.95;88.08;96398.59;5053817;28;20199;-52
2022/06/26 06:29:10;;;;;;;1.65;1.55;;;;;;;22.15;87.25;96404.63;5053905;28;20199;-51
2022/06/26 06:31:38;;;;;;;2.78;1.65;;;;;;;22.59;85.05;96407.13;5054212;28;20234;-53
2022/06/26 06:34:06;;;;;;;2.17;1.75;;;;;;;22.88;80.98;96404.75;5054919;28;20209;-51
2022/06/26 06:36:32;;;;;;;2.97;1.67;;;;;;;23.07;81.54;96398.28;5054842;28;20280;-51
2022/06/26 06:38:59;;;;;;;1.63;1.42;;;;;;;22.95;82.41;96405.50;5054494;28;20811;-51
2022/06/26 06:41:26;;;;;;;1.45;1.40;;;;;;;22.80;82.05;96408.56;5055121;28;20299;-51
2022/06/26 06:43:53;;;;;;;1.50;1.40;;;;;;;22.83;82.77;96401.88;5053814;28;20234;-50
2022/06/26 06:46:20;;;;;;;1.35;1.30;;;;;;;22.88;84.98;96413.66;5053503;28;20230;-50
2022/06/26 06:48:47;;;;;;;1.83;1.40;;;;;;;22.98;81.54;96410.44;5054590;28;20278;-51
2022/06/26 06:51:14;;;;;;;1.65;1.30;;;;;;;23.21;81.76;96415.94;5072619;28;20233;-52
2022/06/26 06:53:41;;;;;;;1.50;1.40;;;;;;;23.24;80.00;96416.31;5068085;28;20211;-52
2022/06/26 06:56:08;;;;;;;3.63;1.42;;;;;;;23.50;77.92;96414.31;5059175;28;20203;-53
2022/06/26 06:58:34;;;;;;;1.52;1.42;;;;;;;23.74;77.87;96414.16;5053259;28;20240;-51
2022/06/26 07:01:01;;;;;;;1.42;1.33;;;;;;;23.96;76.62;96410.94;5053128;28;20294;-51
2022/06/26 07:03:27;;;;;;;1.67;1.58;;;;;;;24.10;76.53;96402.38;5053047;28;20207;-51
2022/06/26 07:05:55;;;;;;;2.60;1.45;;;;;;;24.03;78.36;96403.53;5052935;28;20270;-52
2022/06/26 07:08:22;;;;;;;2.45;1.50;;;;;;;24.43;74.75;96387.50;5053091;28;20614;-51
2022/06/26 07:10:48;;;;;;;0.90;0.90;;;;;;;24.78;74.95;96394.50;5052651;28;20211;-50
2022/06/26 07:13:15;;;;;;;1.30;1.30;;;;;;;24.96;72.95;96381.91;5052617;28;20203;-51
2022/06/26 07:15:41;;;;;;;1.30;1.20;;;;;;;24.63;70.26;96386.06;5052863;28;20230;-51
2022/06/26 07:18:08;;;;;;;1.50;1.40;;;;;;;24.24;72.30;96384.09;5052350;28;20314;-51
2022/06/26 07:20:35;;;;;;;1.67;1.58;;;;;;;24.02;70.61;96388.41;5052775;28;20237;-50
2022/06/26 07:23:03;;;;;;;1.52;1.42;;;;;;;23.75;75.95;96404.19;5052669;28;20222;-52
2022/06/26 07:25:30;;;;;;;1.20;1.20;;;;;;;23.73;78.79;96412.53;5052778;28;20211;-51
2022/06/26 07:27:58;;;;;;;1.33;1.33;;;;;;;23.56;76.96;96419.63;5052687;28;20196;-51
2022/06/26 07:30:25;;;;;;;1.40;1.30;;;;;;;23.40;78.94;96414.84;5052229;28;20389;-50
2022/06/26 07:32:52;;;;;;;1.40;1.40;;;;;;;23.26;77.01;96426.88;5052616;28;20294;-53
2022/06/26 07:35:21;;;;;;;1.15;1.13;;;;;;;23.04;78.65;96421.13;5052949;28;20278;-53
2022/06/26 07:37:48;;;;;;;2.00;1.10;;;;;;;23.00;79.41;96424.50;5052923;28;20777;-50
2022/06/26 07:40:16;;;;;;;1.95;1.17;;;;;;;22.87;78.02;96424.66;5052716;28;20301;-51
2022/06/26 07:42:42;;;;;;;1.30;1.20;;;;;;;22.77;80.26;96419.81;5052002;28;20310;-51
2022/06/26 07:45:10;;;;;;;1.10;1.00;;;;;;;22.83;79.05;96418.06;5052729;28;20230;-51
2022/06/26 07:47:36;;;;;;;0.82;0.82;;;;;;;22.74;79.87;96426.44;5052000;28;20203;-51
2022/06/26 07:50:04;;;;;;;0.98;0.98;;;;;;;22.69;79.98;96422.78;5051890;28;20265;-51
2022/06/26 07:52:30;;;;;;;1.30;1.05;;;;;;;22.65;82.03;96426.94;5053152;28;20600;-50
2022/06/26 07:54:58;;;;;;;1.25;1.15;;;;;;;22.54;79.28;96425.81;5069320;28;20199;-50
2022/06/26 07:57:26;;;;;;;1.95;1.30;;;;;;;22.56;80.84;96423.75;5064288;28;20227;-52
2022/06/26 07:59:54;;;;;;;2.05;1.45;;;;;;;22.48;82.42;96415.09;5055447;28;20290;-52
2022/06/26 08:02:21;;;;;;;1.25;1.15;;;;;;;22.57;82.10;96411.88;5052471;28;20199;-53
2022/06/26 08:04:48;;;;;;;1.42;1.33;;;;;;;22.50;81.60;96410.31;5052164;28;20651;-52
2022/06/26 08:07:15;;;;;;;1.25;1.25;;;;;;;22.45;83.93;96416.38;5052051;28;20264;-52
2022/06/26 08:09:42;;;;;;;1.40;1.10;;;;;;;22.46;81.93;96417.22;5051662;28;20195;-52
2022/06/26 08:12:09;;;;;;;1.15;1.15;;;;;;;22.49;79.98;96420.28;5051873;28;20211;-51
2022/06/26 08:14:37;;;;;;;1.08;1.00;;;;;;;22.70;81.20;96425.28;5055102;28;20285;-52
2022/06/26 08:17:04;;;;;;;1.50;1.40;;;;;;;22.80;81.42;96425.56;5056035;28;20313;-52
2022/06/26 08:19:31;;;;;;;1.30;1.17;;;;;;;23.02;78.72;96433.22;5056306;28;20731;-52
2022/06/26 08:22:03;;;;;;;1.55;1.45;;;;;;;23.09;80.12;96431.25;5057021;28;20301;-51
2022/06/26 08:24:31;;;;;;;1.85;1.25;;;;;;;23.24;80.49;96427.09;5058694;28;20221;-52
2022/06/26 08:26:57;;;;;;;2.25;1.20;;;;;;;23.47;79.37;96437.22;5055879;28;20727;-51
2022/06/26 08:29:24;;;;;;;1.55;1.40;;;;;;;23.47;76.55;96431.81;5055750;28;20290;-50
2022/06/26 08:31:52;;;;;;;1.75;1.20;;;;;;;23.70;74.67;96437.28;5055741;28;20712;-51
2022/06/26 08:34:19;;;;;;;2.88;1.20;;;;;;;23.93;77.98;96441.94;5055440;28;20302;-51
2022/06/26 08:36:45;;;;;;;1.10;1.10;;;;;;;24.13;73.78;96438.94;5055950;28;20294;-52
2022/06/26 08:39:12;;;;;;;1.35;1.25;;;;;;;24.25;71.30;96434.38;5056036;28;20219;-53
2022/06/26 08:41:41;;;;;;;1.15;1.13;;;;;;;24.40;70.01;96432.06;5055786;28;21406;-51
2022/06/26 08:44:08;;;;;;;1.77;1.25;;;;;;;24.28;71.93;96436.63;5056485;28;20227;-52
2022/06/26 08:46:37;;;;;;;1.13;1.13;;;;;;;24.39;71.78;96433.09;5056716;28;20207;-52
2022/06/26 08:49:09;;;;;;;0.95;0.88;;;;;;;24.64;70.87;96430.97;5056074;28;20204;-53
2022/06/26 08:51:37;;;;;;;1.35;1.10;;;;;;;24.81;64.83;96427.53;5056432;28;20546;-51
2022/06/26 08:54:05;;;;;;;1.02;0.95;;;;;;;24.98;69.29;96429.31;5056831;28;20307;-52
2022/06/26 08:56:31;;;;;;;1.50;1.10;;;;;;;25.05;70.77;96424.59;5057058;28;20225;-51
2022/06/26 08:58:59;;;;;;;0.70;0.70;;;;;;;25.18;67.41;96427.03;5057107;28;20302;-51
2022/06/26 09:01:25;;;;;;;0.95;0.95;;;;;;;25.30;67.17;96426.16;5062573;28;20234;-52
2022/06/26 09:03:52;;;;;;;0.95;0.95;;;;;;;25.46;66.74;96426.25;5067560;28;20191;-51
2022/06/26 09:06:20;;;;;;;1.50;1.40;;;;;;;25.73;71.13;96427.31;5069036;28;20278;-50
2022/06/26 09:08:49;;;;;;;1.00;1.00;;;;;;;25.86;66.38;96428.09;5077861;28;20191;-51
2022/06/26 09:11:16;;;;;;;1.15;1.15;;;;;;;26.20;67.58;96432.50;5078580;28;20255;-51
2022/06/26 09:13:44;;;;;;;1.30;1.20;;;;;;;26.31;65.14;96428.88;5078396;28;20208;-52
2022/06/26 09:16:12;;;;;;;1.10;1.10;;;;;;;26.52;63.77;96430.84;5077574;28;20195;-52
2022/06/26 09:18:40;;;;;;;0.98;0.98;;;;;;;26.05;62.28;96427.59;5078906;28;20198;-51
2022/06/26 09:21:08;;;;;;;1.08;1.00;;;;;;;26.04;63.79;96417.03;5076016;28;20214;-51
2022/06/26 09:23:38;;;;;;;1.23;0.80;;;;;;;26.04;63.60;96420.53;5077976;28;20206;-51
2022/06/26 09:26:05;;;;;;;0.90;0.90;;;;;;;26.31;64.59;96418.03;5078727;28;20210;-52
2022/06/26 09:28:32;;;;;;;1.02;1.02;;;;;;;26.46;64.71;96414.75;5076631;28;20203;-52
2022/06/26 09:31:00;;;;;;;1.05;1.02;;;;;;;26.68;66.76;96402.84;5076568;28;20253;-51
2022/06/26 09:33:28;;;;;;;1.10;1.10;;;;;;;26.79;62.14;96395.66;5067961;28;20670;-52
2022/06/26 09:35:55;;;;;;;1.80;1.42;;;;;;;27.06;63.92;96404.75;5059509;28;20245;-51
2022/06/26 09:38:23;;;;;;;1.30;1.20;;;;;;;27.10;61.18;96395.00;5057869;28;20250;-51
2022/06/26 09:40:54;;;;;;;0.90;0.90;;;;;;;27.35;63.51;96389.06;5056944;28;20527;-53
2022/06/26 09:43:30;;;;;;;1.27;1.17;;;;;;;27.62;59.93;96387.22;5055362;28;20211;-53
2022/06/26 09:45:57;;;;;;;1.20;1.20;;;;;;;27.50;59.14;96397.41;5055095;28;20211;-52
2022/06/26 09:48:24;;;;;;;1.13;1.08;;;;;;;27.68;61.44;96397.06;5054674;28;20282;-51
2022/06/26 09:50:52;;;;;;;1.75;1.30;;;;;;;27.26;60.32;96398.75;5054611;28;20238;-52
2022/06/26 09:53:19;;;;;;;1.10;1.10;;;;;;;26.94;61.37;96395.09;5053745;28;20303;-50
2022/06/26 09:55:47;;;;;;;1.27;1.20;;;;;;;27.25;61.30;96397.09;5054519;28;20302;-50
2022/06/26 09:58:15;;;;;;;1.20;1.10;;;;;;;27.66;62.65;96399.22;5053817;28;20322;-52
2022/06/26 10:00:42;;;;;;;1.30;1.30;;;;;;;28.00;63.49;96398.97;5054686;28;20249;-53
2022/06/26 10:08:47;;;;;;;1.08;1.08;;;;;;;27.70;59.29;96403.03;5017884;28;20550;-52
2022/06/26 10:11:14;;;;;;;2.08;1.20;;;;;;;27.68;60.40;96397.06;5053834;28;20231;-52
2022/06/26 10:13:42;;;;;;;1.27;1.13;;;;;;;27.54;58.46;96400.44;5053578;28;20214;-51
2022/06/26 10:16:23;;;;;;;1.45;1.23;;;;;;;27.75;60.57;96404.19;5053291;28;20405;-52
2022/06/26 10:19:05;;;;;;;1.20;1.20;;;;;;;27.92;57.39;96396.72;5053620;28;20247;-51
2022/06/26 10:21:36;;;;;;;1.50;1.20;;;;;;;28.14;56.18;96397.50;5054021;28;20614;-51
2022/06/26 10:24:04;;;;;;;1.15;1.15;;;;;;;28.23;55.02;96390.53;5054017;28;20240;-53
2022/06/26 10:26:30;;;;;;;1.30;1.20;;;;;;;28.19;54.84;96394.84;5060954;28;20229;-51
2022/06/26 10:29:01;;;;;;;1.00;1.00;;;;;;;27.92;55.06;96385.84;5061741;28;20248;-52
2022/06/26 10:31:30;;;;;;;1.65;1.55;;;;;;;28.21;58.04;96379.06;5061638;28;20234;-53
2022/06/26 10:34:08;;;;;;;1.95;1.15;;;;;;;28.34;56.65;96383.25;5060730;28;20219;-51
2022/06/26 10:36:35;;;;;;;1.00;1.00;;;;;;;28.38;58.51;96387.91;5060953;28;20278;-53
2022/06/26 10:39:04;;;;;;;1.15;1.05;;;;;;;28.65;58.90;96385.09;5062321;28;20939;-50
2022/06/26 10:44:30;;;;;;;3.00;1.30;;;;;;;28.18;56.80;96371.44;5064478;28;20245;-50
2022/06/26 10:46:58;;;;;;;0.98;0.98;;;;;;;28.53;56.21;96368.97;5064571;28;20191;-52
2022/06/26 10:49:25;;;;;;;2.15;1.52;;;;;;;28.84;56.09;96369.19;5064557;28;20326;-53
2022/06/26 10:51:52;;;;;;;2.25;1.20;;;;;;;28.82;55.36;96368.59;5062755;28;20619;-52
2022/06/26 10:54:20;;;;;;;1.45;1.17;;;;;;;28.75;54.31;96368.84;5062606;28;20689;-52
2022/06/26 10:56:48;;;;;;;1.10;1.10;;;;;;;28.96;54.10;96358.88;5059641;28;20223;-51
2022/06/26 10:59:18;;;;;;;4.18;2.50;;;;;;;29.01;56.44;96359.72;5059166;28;20266;-52
2022/06/26 11:01:46;;;;;;;1.08;1.08;;;;;;;29.19;54.70;96355.72;5058669;28;20639;-50
2022/06/26 11:04:13;;;;;;;1.20;1.20;;;;;;;29.20;52.78;96354.59;5062885;28;20218;-52
2022/06/26 11:06:41;;;;;;;1.20;1.20;;;;;;;29.34;54.07;96350.31;5065495;28;20647;-51
2022/06/26 11:09:09;;;;;;;1.52;1.27;;;;;;;29.32;52.53;96338.88;5063347;28;20207;-50
2022/06/26 11:11:35;;;;;;;1.02;1.00;;;;;;;29.37;52.92;96338.88;5071436;28;20258;-51
2022/06/26 11:14:06;;;;;;;1.20;1.20;;;;;;;29.58;51.74;96340.56;5069100;28;20214;-51
2022/06/26 11:16:34;;;;;;;1.65;1.55;;;;;;;29.50;56.49;96332.94;5064291;28;20226;-50
2022/06/26 11:19:04;;;;;;;1.60;1.20;;;;;;;29.63;54.56;96329.69;5054276;28;20219;-52
2022/06/26 11:21:31;;;;;;;1.25;1.15;;;;;;;29.71;54.13;96322.06;5053402;28;20195;-50
2022/06/26 11:23:58;;;;;;;1.00;1.00;;;;;;;29.85;55.05;96318.56;5052822;28;20246;-51
2022/06/26 11:26:25;;;;;;;1.75;1.40;;;;;;;29.82;53.31;96323.69;5053651;28;20299;-52
2022/06/26 11:28:56;;;;;;;1.90;1.23;;;;;;;29.94;54.04;96326.97;5068256;28;20230;-52
2022/06/26 11:31:24;;;;;;;1.17;1.10;;;;;;;30.00;51.49;96320.47;5069098;28;20211;-50
2022/06/26 11:33:51;;;;;;;1.15;1.10;;;;;;;29.87;48.91;96323.72;5066745;28;20234;-52
2022/06/26 11:36:22;;;;;;;1.35;1.10;;;;;;;29.85;50.97;96312.28;5067592;28;20202;-52
2022/06/26 11:38:51;;;;;;;1.35;1.00;;;;;;;29.78;49.39;96317.16;5066515;28;20589;-57
2022/06/26 11:41:18;;;;;;;1.58;1.45;;;;;;;29.89;50.28;96316.09;5068154;28;20218;-51
2022/06/26 11:43:46;;;;;;;1.35;1.25;;;;;;;29.84;51.09;96310.59;5066464;28;20611;-52